Řízení letového provozu České republiky
Letiste: LKTB Aktualizace: 15.10.2019 23:30:28  UTC
 METAR LKTB 15.10. 23:30 ...
METAR LKTB 152330Z 11006KT CAVOK 14/12 Q1008 NOSIG RMK REG QNH 1005=
 TAF LKTB 15.10. 23:00 ...
TAF LKTB 152300Z 1600/1706 10008KT CAVOK      BECMG 1608/1610 26008KT 9999 BKN025      TEMPO 1610/1616 8000 RA BKN020      BECMG 1616/1618 11002KT CAVOK      BECMG 1618/1621 3000 BR BKN010      BECMG 1621/1623 0900 FG BKN005=